sensor_id;sensor_type;location;lat;lon;timestamp;temperature;humidity
9057;DHT22;4563;54.756;9.400;2022-10-16T00:00:36;16.00;77.80
9057;DHT22;4563;54.756;9.400;2022-10-16T00:03:04;15.90;77.70
9057;DHT22;4563;54.756;9.400;2022-10-16T00:05:32;16.00;77.80
9057;DHT22;4563;54.756;9.400;2022-10-16T00:07:58;15.90;77.70
9057;DHT22;4563;54.756;9.400;2022-10-16T00:10:25;15.90;77.70
9057;DHT22;4563;54.756;9.400;2022-10-16T00:12:53;15.90;77.70
9057;DHT22;4563;54.756;9.400;2022-10-16T00:15:20;15.90;77.70
9057;DHT22;4563;54.756;9.400;2022-10-16T00:17:47;15.90;77.70
9057;DHT22;4563;54.756;9.400;2022-10-16T00:20:14;15.90;77.70
9057;DHT22;4563;54.756;9.400;2022-10-16T00:22:41;15.90;77.70
9057;DHT22;4563;54.756;9.400;2022-10-16T00:25:08;15.80;77.50
9057;DHT22;4563;54.756;9.400;2022-10-16T00:27:35;15.80;77.50
9057;DHT22;4563;54.756;9.400;2022-10-16T00:30:04;15.80;77.50
9057;DHT22;4563;54.756;9.400;2022-10-16T00:32:31;15.80;77.60
9057;DHT22;4563;54.756;9.400;2022-10-16T00:34:57;15.80;77.50
9057;DHT22;4563;54.756;9.400;2022-10-16T00:37:24;15.80;77.50
9057;DHT22;4563;54.756;9.400;2022-10-16T00:39:51;15.80;77.50
9057;DHT22;4563;54.756;9.400;2022-10-16T00:42:18;15.70;77.40
9057;DHT22;4563;54.756;9.400;2022-10-16T00:44:48;15.70;77.40
9057;DHT22;4563;54.756;9.400;2022-10-16T00:47:22;15.70;77.40
9057;DHT22;4563;54.756;9.400;2022-10-16T00:49:55;15.70;77.40
9057;DHT22;4563;54.756;9.400;2022-10-16T00:52:23;15.70;77.40
9057;DHT22;4563;54.756;9.400;2022-10-16T00:54:50;15.70;77.40
9057;DHT22;4563;54.756;9.400;2022-10-16T00:57:18;15.60;77.40
9057;DHT22;4563;54.756;9.400;2022-10-16T00:59:45;15.60;77.40
9057;DHT22;4563;54.756;9.400;2022-10-16T01:02:14;15.60;77.30
9057;DHT22;4563;54.756;9.400;2022-10-16T01:04:45;15.60;77.40
9057;DHT22;4563;54.756;9.400;2022-10-16T01:07:18;15.60;77.20
9057;DHT22;4563;54.756;9.400;2022-10-16T01:09:57;15.60;77.30
9057;DHT22;4563;54.756;9.400;2022-10-16T01:12:32;15.60;77.20
9057;DHT22;4563;54.756;9.400;2022-10-16T01:15:06;15.60;77.30
9057;DHT22;4563;54.756;9.400;2022-10-16T01:17:41;15.60;77.20
9057;DHT22;4563;54.756;9.400;2022-10-16T01:20:16;15.60;77.20
9057;DHT22;4563;54.756;9.400;2022-10-16T01:23:01;15.50;77.10
9057;DHT22;4563;54.756;9.400;2022-10-16T01:25:37;15.50;77.00
9057;DHT22;4563;54.756;9.400;2022-10-16T01:28:09;15.50;77.10
9057;DHT22;4563;54.756;9.400;2022-10-16T01:30:37;15.50;77.10
9057;DHT22;4563;54.756;9.400;2022-10-16T01:33:10;15.50;77.10
9057;DHT22;4563;54.756;9.400;2022-10-16T01:35:42;15.50;77.10
9057;DHT22;4563;54.756;9.400;2022-10-16T01:38:14;15.50;77.10
9057;DHT22;4563;54.756;9.400;2022-10-16T01:40:45;15.50;77.10
9057;DHT22;4563;54.756;9.400;2022-10-16T01:43:17;15.50;77.10
9057;DHT22;4563;54.756;9.400;2022-10-16T01:45:46;15.50;77.10
9057;DHT22;4563;54.756;9.400;2022-10-16T01:48:17;15.50;77.20
9057;DHT22;4563;54.756;9.400;2022-10-16T01:50:56;15.50;77.10
9057;DHT22;4563;54.756;9.400;2022-10-16T01:53:24;15.40;77.00
9057;DHT22;4563;54.756;9.400;2022-10-16T01:55:54;15.40;77.20
9057;DHT22;4563;54.756;9.400;2022-10-16T01:58:24;15.40;77.10
9057;DHT22;4563;54.756;9.400;2022-10-16T02:00:52;15.40;77.10
9057;DHT22;4563;54.756;9.400;2022-10-16T02:03:20;15.40;77.10
9057;DHT22;4563;54.756;9.400;2022-10-16T02:05:50;15.40;77.10
9057;DHT22;4563;54.756;9.400;2022-10-16T02:08:18;15.40;77.10
9057;DHT22;4563;54.756;9.400;2022-10-16T02:10:45;15.40;77.10
9057;DHT22;4563;54.756;9.400;2022-10-16T02:13:17;15.40;77.10
9057;DHT22;4563;54.756;9.400;2022-10-16T02:15:46;15.40;77.00
9057;DHT22;4563;54.756;9.400;2022-10-16T02:18:13;15.40;77.10
9057;DHT22;4563;54.756;9.400;2022-10-16T02:20:46;15.30;77.00
9057;DHT22;4563;54.756;9.400;2022-10-16T02:23:27;15.30;77.00
9057;DHT22;4563;54.756;9.400;2022-10-16T02:25:58;15.30;76.80
9057;DHT22;4563;54.756;9.400;2022-10-16T02:28:31;15.30;77.00
9057;DHT22;4563;54.756;9.400;2022-10-16T02:31:04;15.40;77.10
9057;DHT22;4563;54.756;9.400;2022-10-16T02:33:35;15.30;77.00
9057;DHT22;4563;54.756;9.400;2022-10-16T02:36:03;15.30;77.30
9057;DHT22;4563;54.756;9.400;2022-10-16T02:38:31;15.30;77.00
9057;DHT22;4563;54.756;9.400;2022-10-16T02:40:58;15.30;77.00
9057;DHT22;4563;54.756;9.400;2022-10-16T02:43:25;15.30;77.00
9057;DHT22;4563;54.756;9.400;2022-10-16T02:45:52;15.30;77.00
9057;DHT22;4563;54.756;9.400;2022-10-16T02:48:20;15.30;77.00
9057;DHT22;4563;54.756;9.400;2022-10-16T02:50:47;15.30;77.00
9057;DHT22;4563;54.756;9.400;2022-10-16T02:53:14;15.20;76.90
9057;DHT22;4563;54.756;9.400;2022-10-16T02:55:40;15.20;77.00
9057;DHT22;4563;54.756;9.400;2022-10-16T02:58:07;15.20;77.00
9057;DHT22;4563;54.756;9.400;2022-10-16T03:00:34;15.20;77.00
9057;DHT22;4563;54.756;9.400;2022-10-16T03:03:01;15.20;77.00
9057;DHT22;4563;54.756;9.400;2022-10-16T03:05:29;15.20;77.00
9057;DHT22;4563;54.756;9.400;2022-10-16T03:07:56;15.20;77.70
9057;DHT22;4563;54.756;9.400;2022-10-16T03:10:25;15.20;77.00
9057;DHT22;4563;54.756;9.400;2022-10-16T03:12:52;15.20;77.00
9057;DHT22;4563;54.756;9.400;2022-10-16T03:15:19;15.20;77.00
9057;DHT22;4563;54.756;9.400;2022-10-16T03:17:45;15.20;76.90
9057;DHT22;4563;54.756;9.400;2022-10-16T03:20:12;15.20;76.90
9057;DHT22;4563;54.756;9.400;2022-10-16T03:22:40;15.20;77.00
9057;DHT22;4563;54.756;9.400;2022-10-16T03:25:08;15.20;77.00
9057;DHT22;4563;54.756;9.400;2022-10-16T03:27:34;15.20;77.00
9057;DHT22;4563;54.756;9.400;2022-10-16T03:30:02;15.20;77.00
9057;DHT22;4563;54.756;9.400;2022-10-16T03:32:29;15.10;76.90
9057;DHT22;4563;54.756;9.400;2022-10-16T03:34:55;15.20;77.00
9057;DHT22;4563;54.756;9.400;2022-10-16T03:37:22;15.10;76.90
9057;DHT22;4563;54.756;9.400;2022-10-16T03:39:51;15.10;76.90
9057;DHT22;4563;54.756;9.400;2022-10-16T03:42:17;15.10;76.90
9057;DHT22;4563;54.756;9.400;2022-10-16T03:44:44;15.10;76.90
9057;DHT22;4563;54.756;9.400;2022-10-16T03:47:11;15.10;76.90
9057;DHT22;4563;54.756;9.400;2022-10-16T03:49:38;15.10;76.80
9057;DHT22;4563;54.756;9.400;2022-10-16T03:52:05;15.10;76.80
9057;DHT22;4563;54.756;9.400;2022-10-16T03:54:31;15.00;76.80
9057;DHT22;4563;54.756;9.400;2022-10-16T03:56:59;15.10;76.90
9057;DHT22;4563;54.756;9.400;2022-10-16T03:59:26;15.10;76.90
9057;DHT22;4563;54.756;9.400;2022-10-16T04:01:53;15.10;77.60
9057;DHT22;4563;54.756;9.400;2022-10-16T04:04:20;15.00;76.70
9057;DHT22;4563;54.756;9.400;2022-10-16T04:06:46;15.00;76.70
9057;DHT22;4563;54.756;9.400;2022-10-16T04:09:13;15.00;76.70
9057;DHT22;4563;54.756;9.400;2022-10-16T04:11:40;15.00;76.70
9057;DHT22;4563;54.756;9.400;2022-10-16T04:14:08;15.00;76.60
9057;DHT22;4563;54.756;9.400;2022-10-16T04:16:35;15.00;76.70
9057;DHT22;4563;54.756;9.400;2022-10-16T04:19:02;15.00;76.60
9057;DHT22;4563;54.756;9.400;2022-10-16T04:21:28;15.00;76.60
9057;DHT22;4563;54.756;9.400;2022-10-16T04:23:55;14.90;76.60
9057;DHT22;4563;54.756;9.400;2022-10-16T04:26:22;15.00;76.70
9057;DHT22;4563;54.756;9.400;2022-10-16T04:28:49;14.90;76.60
9057;DHT22;4563;54.756;9.400;2022-10-16T04:31:17;14.90;76.60
9057;DHT22;4563;54.756;9.400;2022-10-16T04:33:44;14.90;76.50
9057;DHT22;4563;54.756;9.400;2022-10-16T04:36:11;15.00;76.60
9057;DHT22;4563;54.756;9.400;2022-10-16T04:38:38;14.90;76.50
9057;DHT22;4563;54.756;9.400;2022-10-16T04:41:05;14.90;76.50
9057;DHT22;4563;54.756;9.400;2022-10-16T04:43:32;14.90;76.60
9057;DHT22;4563;54.756;9.400;2022-10-16T04:45:59;14.90;76.50
9057;DHT22;4563;54.756;9.400;2022-10-16T04:48:28;14.90;76.60
9057;DHT22;4563;54.756;9.400;2022-10-16T04:50:55;14.90;76.50
9057;DHT22;4563;54.756;9.400;2022-10-16T04:53:22;14.80;76.50
9057;DHT22;4563;54.756;9.400;2022-10-16T04:55:49;14.90;76.50
9057;DHT22;4563;54.756;9.400;2022-10-16T04:58:16;14.90;76.60
9057;DHT22;4563;54.756;9.400;2022-10-16T05:00:43;14.80;76.50
9057;DHT22;4563;54.756;9.400;2022-10-16T05:03:12;14.80;76.60
9057;DHT22;4563;54.756;9.400;2022-10-16T05:05:44;14.90;76.60
9057;DHT22;4563;54.756;9.400;2022-10-16T05:08:11;14.80;76.50
9057;DHT22;4563;54.756;9.400;2022-10-16T05:10:38;14.80;76.70
9057;DHT22;4563;54.756;9.400;2022-10-16T05:13:05;14.80;76.60
9057;DHT22;4563;54.756;9.400;2022-10-16T05:15:33;14.90;76.80
9057;DHT22;4563;54.756;9.400;2022-10-16T05:18:00;14.80;76.60
9057;DHT22;4563;54.756;9.400;2022-10-16T05:20:27;14.80;76.70
9057;DHT22;4563;54.756;9.400;2022-10-16T05:22:55;14.80;76.70
9057;DHT22;4563;54.756;9.400;2022-10-16T05:25:22;14.80;76.70
9057;DHT22;4563;54.756;9.400;2022-10-16T05:27:49;14.80;76.70
9057;DHT22;4563;54.756;9.400;2022-10-16T05:30:16;14.80;76.80
9057;DHT22;4563;54.756;9.400;2022-10-16T05:32:47;14.80;76.70
9057;DHT22;4563;54.756;9.400;2022-10-16T05:35:14;14.80;76.80
9057;DHT22;4563;54.756;9.400;2022-10-16T05:37:41;14.80;76.80
9057;DHT22;4563;54.756;9.400;2022-10-16T05:40:10;14.90;76.90
9057;DHT22;4563;54.756;9.400;2022-10-16T05:42:38;14.90;76.90
9057;DHT22;4563;54.756;9.400;2022-10-16T05:45:06;14.90;76.90
9057;DHT22;4563;54.756;9.400;2022-10-16T05:47:33;14.90;76.90
9057;DHT22;4563;54.756;9.400;2022-10-16T05:50:00;14.90;76.80
9057;DHT22;4563;54.756;9.400;2022-10-16T05:52:27;14.90;77.00
9057;DHT22;4563;54.756;9.400;2022-10-16T05:54:54;14.90;77.00
9057;DHT22;4563;54.756;9.400;2022-10-16T05:57:22;14.90;76.90
9057;DHT22;4563;54.756;9.400;2022-10-16T05:59:48;14.90;77.00
9057;DHT22;4563;54.756;9.400;2022-10-16T06:02:15;14.90;76.90
9057;DHT22;4563;54.756;9.400;2022-10-16T06:04:42;15.00;77.00
9057;DHT22;4563;54.756;9.400;2022-10-16T06:07:09;14.90;76.90
9057;DHT22;4563;54.756;9.400;2022-10-16T06:09:36;15.00;77.00
9057;DHT22;4563;54.756;9.400;2022-10-16T06:12:03;14.90;76.90
9057;DHT22;4563;54.756;9.400;2022-10-16T06:14:32;15.00;77.00
9057;DHT22;4563;54.756;9.400;2022-10-16T06:16:59;15.00;76.90
9057;DHT22;4563;54.756;9.400;2022-10-16T06:19:26;15.00;76.90
9057;DHT22;4563;54.756;9.400;2022-10-16T06:21:52;15.00;77.00
9057;DHT22;4563;54.756;9.400;2022-10-16T06:24:19;15.00;76.90
9057;DHT22;4563;54.756;9.400;2022-10-16T06:26:46;15.00;76.90
9057;DHT22;4563;54.756;9.400;2022-10-16T06:29:13;15.00;76.80
9057;DHT22;4563;54.756;9.400;2022-10-16T06:31:41;15.00;76.90
9057;DHT22;4563;54.756;9.400;2022-10-16T06:34:08;15.00;76.80
9057;DHT22;4563;54.756;9.400;2022-10-16T06:36:37;15.00;76.80
9057;DHT22;4563;54.756;9.400;2022-10-16T06:39:04;15.00;76.80
9057;DHT22;4563;54.756;9.400;2022-10-16T06:41:33;15.10;76.90
9057;DHT22;4563;54.756;9.400;2022-10-16T06:44:00;15.00;76.80
9057;DHT22;4563;54.756;9.400;2022-10-16T06:46:27;15.10;76.90
9057;DHT22;4563;54.756;9.400;2022-10-16T06:48:55;15.10;76.80
9057;DHT22;4563;54.756;9.400;2022-10-16T06:51:23;15.10;76.80
9057;DHT22;4563;54.756;9.400;2022-10-16T06:53:52;15.10;76.80
9057;DHT22;4563;54.756;9.400;2022-10-16T06:56:22;15.10;76.80
9057;DHT22;4563;54.756;9.400;2022-10-16T06:58:50;15.10;76.80
9057;DHT22;4563;54.756;9.400;2022-10-16T07:01:18;15.10;76.80
9057;DHT22;4563;54.756;9.400;2022-10-16T07:03:46;15.10;76.80
9057;DHT22;4563;54.756;9.400;2022-10-16T07:06:16;15.20;76.90
9057;DHT22;4563;54.756;9.400;2022-10-16T07:08:47;15.20;76.80
9057;DHT22;4563;54.756;9.400;2022-10-16T07:11:16;15.20;76.70
9057;DHT22;4563;54.756;9.400;2022-10-16T07:13:44;15.30;76.70
9057;DHT22;4563;54.756;9.400;2022-10-16T07:16:13;15.30;76.70
9057;DHT22;4563;54.756;9.400;2022-10-16T07:18:42;15.30;76.70
9057;DHT22;4563;54.756;9.400;2022-10-16T07:21:16;15.30;76.70
9057;DHT22;4563;54.756;9.400;2022-10-16T07:24:20;15.30;76.70
9057;DHT22;4563;54.756;9.400;2022-10-16T07:26:47;15.30;76.50
9057;DHT22;4563;54.756;9.400;2022-10-16T07:29:16;15.30;76.70
9057;DHT22;4563;54.756;9.400;2022-10-16T07:31:43;15.30;76.70
9057;DHT22;4563;54.756;9.400;2022-10-16T07:34:11;15.40;76.90
9057;DHT22;4563;54.756;9.400;2022-10-16T07:36:40;15.40;76.90
9057;DHT22;4563;54.756;9.400;2022-10-16T07:39:07;15.40;76.80
9057;DHT22;4563;54.756;9.400;2022-10-16T07:41:34;15.50;76.90
9057;DHT22;4563;54.756;9.400;2022-10-16T07:44:02;15.50;76.90
9057;DHT22;4563;54.756;9.400;2022-10-16T07:46:29;15.50;76.80
9057;DHT22;4563;54.756;9.400;2022-10-16T07:48:56;15.50;76.80
9057;DHT22;4563;54.756;9.400;2022-10-16T07:51:25;15.50;76.70
9057;DHT22;4563;54.756;9.400;2022-10-16T07:53:53;15.50;76.60
9057;DHT22;4563;54.756;9.400;2022-10-16T07:56:21;15.50;76.50
9057;DHT22;4563;54.756;9.400;2022-10-16T07:58:49;15.60;76.70
9057;DHT22;4563;54.756;9.400;2022-10-16T08:01:17;15.60;76.70
9057;DHT22;4563;54.756;9.400;2022-10-16T08:03:44;15.60;76.70
9057;DHT22;4563;54.756;9.400;2022-10-16T08:06:12;15.60;76.70
9057;DHT22;4563;54.756;9.400;2022-10-16T08:08:39;15.60;76.80
9057;DHT22;4563;54.756;9.400;2022-10-16T08:11:07;15.70;76.90
9057;DHT22;4563;54.756;9.400;2022-10-16T08:13:34;15.70;76.90
9057;DHT22;4563;54.756;9.400;2022-10-16T08:16:02;15.70;76.90
9057;DHT22;4563;54.756;9.400;2022-10-16T08:18:33;15.70;76.80
9057;DHT22;4563;54.756;9.400;2022-10-16T08:21:00;15.80;77.60
9057;DHT22;4563;54.756;9.400;2022-10-16T08:23:27;15.80;76.80
9057;DHT22;4563;54.756;9.400;2022-10-16T08:25:55;15.80;76.80
9057;DHT22;4563;54.756;9.400;2022-10-16T08:28:23;15.80;76.80
9057;DHT22;4563;54.756;9.400;2022-10-16T08:30:50;15.90;76.80
9057;DHT22;4563;54.756;9.400;2022-10-16T08:33:17;15.90;76.60
9057;DHT22;4563;54.756;9.400;2022-10-16T08:35:50;15.90;76.50
9057;DHT22;4563;54.756;9.400;2022-10-16T08:38:18;16.00;76.50
9057;DHT22;4563;54.756;9.400;2022-10-16T08:40:44;16.00;76.60
9057;DHT22;4563;54.756;9.400;2022-10-16T08:43:25;16.00;76.50
9057;DHT22;4563;54.756;9.400;2022-10-16T08:48:53;16.10;76.40
9057;DHT22;4563;54.756;9.400;2022-10-16T08:51:23;16.10;76.30
9057;DHT22;4563;54.756;9.400;2022-10-16T08:53:54;16.10;76.20
9057;DHT22;4563;54.756;9.400;2022-10-16T08:56:22;16.20;76.30
9057;DHT22;4563;54.756;9.400;2022-10-16T08:58:52;16.20;76.20
9057;DHT22;4563;54.756;9.400;2022-10-16T09:01:21;16.20;76.20
9057;DHT22;4563;54.756;9.400;2022-10-16T09:06:50;16.20;76.10
9057;DHT22;4563;54.756;9.400;2022-10-16T09:09:32;16.30;76.20
9057;DHT22;4563;54.756;9.400;2022-10-16T09:12:07;16.30;76.10
9057;DHT22;4563;54.756;9.400;2022-10-16T09:14:58;16.30;76.10
9057;DHT22;4563;54.756;9.400;2022-10-16T09:17:42;16.30;76.10
9057;DHT22;4563;54.756;9.400;2022-10-16T09:20:22;16.40;76.20
9057;DHT22;4563;54.756;9.400;2022-10-16T09:22:53;16.40;76.20
9057;DHT22;4563;54.756;9.400;2022-10-16T09:25:22;16.40;76.20
9057;DHT22;4563;54.756;9.400;2022-10-16T09:27:52;16.50;76.30
9057;DHT22;4563;54.756;9.400;2022-10-16T09:30:21;16.50;76.30
9057;DHT22;4563;54.756;9.400;2022-10-16T09:32:51;16.50;76.40
9057;DHT22;4563;54.756;9.400;2022-10-16T09:35:21;16.60;76.50
9057;DHT22;4563;54.756;9.400;2022-10-16T09:37:50;16.60;76.40
9057;DHT22;4563;54.756;9.400;2022-10-16T09:40:25;16.60;76.20
9057;DHT22;4563;54.756;9.400;2022-10-16T09:42:58;16.60;76.10
9057;DHT22;4563;54.756;9.400;2022-10-16T09:45:29;16.70;76.20
9057;DHT22;4563;54.756;9.400;2022-10-16T09:47:56;16.70;76.20
9057;DHT22;4563;54.756;9.400;2022-10-16T09:50:24;16.70;76.00
9057;DHT22;4563;54.756;9.400;2022-10-16T09:53:03;16.80;76.10
9057;DHT22;4563;54.756;9.400;2022-10-16T09:55:30;16.80;76.00
9057;DHT22;4563;54.756;9.400;2022-10-16T09:57:57;16.80;75.90
9057;DHT22;4563;54.756;9.400;2022-10-16T10:00:24;16.90;76.00
9057;DHT22;4563;54.756;9.400;2022-10-16T10:02:53;16.90;75.90
9057;DHT22;4563;54.756;9.400;2022-10-16T10:05:22;16.90;75.90
9057;DHT22;4563;54.756;9.400;2022-10-16T10:07:55;16.90;75.80
9057;DHT22;4563;54.756;9.400;2022-10-16T10:10:24;17.00;75.80
9057;DHT22;4563;54.756;9.400;2022-10-16T10:12:52;17.00;75.70
9057;DHT22;4563;54.756;9.400;2022-10-16T10:15:19;17.00;75.70
9057;DHT22;4563;54.756;9.400;2022-10-16T10:17:53;17.10;75.80
9057;DHT22;4563;54.756;9.400;2022-10-16T10:20:26;17.10;75.80
9057;DHT22;4563;54.756;9.400;2022-10-16T10:22:53;17.10;76.40
9057;DHT22;4563;54.756;9.400;2022-10-16T10:25:41;17.20;75.70
9057;DHT22;4563;54.756;9.400;2022-10-16T10:28:22;17.20;75.70
9057;DHT22;4563;54.756;9.400;2022-10-16T10:30:56;17.20;76.40
9057;DHT22;4563;54.756;9.400;2022-10-16T10:33:34;17.30;75.60
9057;DHT22;4563;54.756;9.400;2022-10-16T10:36:14;17.30;75.60
9057;DHT22;4563;54.756;9.400;2022-10-16T10:38:48;17.40;75.60
9057;DHT22;4563;54.756;9.400;2022-10-16T10:44:27;17.40;75.40
9057;DHT22;4563;54.756;9.400;2022-10-16T10:46:57;17.50;75.40
9057;DHT22;4563;54.756;9.400;2022-10-16T10:49:41;17.50;75.30
9057;DHT22;4563;54.756;9.400;2022-10-16T10:52:26;17.60;75.40
9057;DHT22;4563;54.756;9.400;2022-10-16T10:55:03;17.60;75.20
9057;DHT22;4563;54.756;9.400;2022-10-16T10:57:42;17.70;75.00
9057;DHT22;4563;54.756;9.400;2022-10-16T11:00:21;17.70;74.70
9057;DHT22;4563;54.756;9.400;2022-10-16T11:02:55;17.70;74.30
9057;DHT22;4563;54.756;9.400;2022-10-16T11:05:40;17.70;74.20
9057;DHT22;4563;54.756;9.400;2022-10-16T11:08:13;17.80;74.30
9057;DHT22;4563;54.756;9.400;2022-10-16T11:10:50;17.80;74.10
9057;DHT22;4563;54.756;9.400;2022-10-16T11:13:29;17.80;74.10
9057;DHT22;4563;54.756;9.400;2022-10-16T11:15:59;17.80;74.00
9057;DHT22;4563;54.756;9.400;2022-10-16T11:18:32;17.80;73.70
9057;DHT22;4563;54.756;9.400;2022-10-16T11:21:08;17.90;73.60
9057;DHT22;4563;54.756;9.400;2022-10-16T11:23:41;17.90;73.40
9057;DHT22;4563;54.756;9.400;2022-10-16T11:26:14;17.90;73.10
9057;DHT22;4563;54.756;9.400;2022-10-16T11:28:45;17.90;72.80
9057;DHT22;4563;54.756;9.400;2022-10-16T11:31:17;18.00;72.80
9057;DHT22;4563;54.756;9.400;2022-10-16T11:33:49;18.00;72.70
9057;DHT22;4563;54.756;9.400;2022-10-16T11:36:22;18.00;72.50
9057;DHT22;4563;54.756;9.400;2022-10-16T11:38:54;18.00;72.40
9057;DHT22;4563;54.756;9.400;2022-10-16T11:41:28;18.00;72.20
9057;DHT22;4563;54.756;9.400;2022-10-16T11:44:14;18.10;72.10
9057;DHT22;4563;54.756;9.400;2022-10-16T11:46:48;18.10;71.90
9057;DHT22;4563;54.756;9.400;2022-10-16T11:49:20;18.00;71.80
9057;DHT22;4563;54.756;9.400;2022-10-16T11:51:56;18.10;72.50
9057;DHT22;4563;54.756;9.400;2022-10-16T11:54:28;18.10;71.70
9057;DHT22;4563;54.756;9.400;2022-10-16T11:57:02;18.10;71.70
9057;DHT22;4563;54.756;9.400;2022-10-16T11:59:36;18.10;71.50
9057;DHT22;4563;54.756;9.400;2022-10-16T12:02:25;18.10;71.70
9057;DHT22;4563;54.756;9.400;2022-10-16T12:05:05;18.10;71.70
9057;DHT22;4563;54.756;9.400;2022-10-16T12:07:37;18.10;71.70
9057;DHT22;4563;54.756;9.400;2022-10-16T12:10:20;18.10;71.40
9057;DHT22;4563;54.756;9.400;2022-10-16T12:12:47;18.10;71.80
9057;DHT22;4563;54.756;9.400;2022-10-16T12:15:24;18.10;71.60
9057;DHT22;4563;54.756;9.400;2022-10-16T12:17:51;18.10;72.00
9057;DHT22;4563;54.756;9.400;2022-10-16T12:20:27;18.10;72.30
9057;DHT22;4563;54.756;9.400;2022-10-16T12:23:00;18.10;72.70
9057;DHT22;4563;54.756;9.400;2022-10-16T12:25:29;18.10;72.80
9057;DHT22;4563;54.756;9.400;2022-10-16T12:28:17;18.10;72.60
9057;DHT22;4563;54.756;9.400;2022-10-16T12:30:53;18.10;72.50
9057;DHT22;4563;54.756;9.400;2022-10-16T12:33:22;18.00;72.30
9057;DHT22;4563;54.756;9.400;2022-10-16T12:35:50;18.00;72.20
9057;DHT22;4563;54.756;9.400;2022-10-16T12:38:21;18.00;72.20
9057;DHT22;4563;54.756;9.400;2022-10-16T12:40:57;18.00;72.20
9057;DHT22;4563;54.756;9.400;2022-10-16T12:43:34;17.90;72.10
9057;DHT22;4563;54.756;9.400;2022-10-16T12:46:04;17.90;72.10
9057;DHT22;4563;54.756;9.400;2022-10-16T12:48:32;17.90;72.00
9057;DHT22;4563;54.756;9.400;2022-10-16T12:51:10;17.90;72.10
9057;DHT22;4563;54.756;9.400;2022-10-16T12:53:39;17.90;72.10
9057;DHT22;4563;54.756;9.400;2022-10-16T12:56:14;17.90;72.00
9057;DHT22;4563;54.756;9.400;2022-10-16T12:58:52;17.90;72.10
9057;DHT22;4563;54.756;9.400;2022-10-16T13:01:39;17.90;72.10
9057;DHT22;4563;54.756;9.400;2022-10-16T13:07:12;18.00;72.30
9057;DHT22;4563;54.756;9.400;2022-10-16T13:09:58;18.00;71.80
9057;DHT22;4563;54.756;9.400;2022-10-16T13:12:49;18.10;71.60
9057;DHT22;4563;54.756;9.400;2022-10-16T13:15:31;18.20;71.50
9057;DHT22;4563;54.756;9.400;2022-10-16T13:18:06;18.30;71.60
9057;DHT22;4563;54.756;9.400;2022-10-16T13:20:50;18.30;71.20
9057;DHT22;4563;54.756;9.400;2022-10-16T13:23:23;18.40;70.90
9057;DHT22;4563;54.756;9.400;2022-10-16T13:26:07;18.60;70.90
9057;DHT22;4563;54.756;9.400;2022-10-16T13:28:38;18.70;70.90
9057;DHT22;4563;54.756;9.400;2022-10-16T13:31:12;18.80;70.60
9057;DHT22;4563;54.756;9.400;2022-10-16T13:33:43;18.90;70.50
9057;DHT22;4563;54.756;9.400;2022-10-16T13:36:20;19.00;70.20
9057;DHT22;4563;54.756;9.400;2022-10-16T13:38:47;19.10;69.90
9057;DHT22;4563;54.756;9.400;2022-10-16T13:41:17;19.20;69.40
9057;DHT22;4563;54.756;9.400;2022-10-16T13:43:46;19.30;69.10
9057;DHT22;4563;54.756;9.400;2022-10-16T13:46:16;19.40;69.20
9057;DHT22;4563;54.756;9.400;2022-10-16T13:48:43;19.40;68.80
9057;DHT22;4563;54.756;9.400;2022-10-16T13:51:13;19.50;68.60
9057;DHT22;4563;54.756;9.400;2022-10-16T13:53:41;19.60;68.60
9057;DHT22;4563;54.756;9.400;2022-10-16T13:56:11;19.60;68.40
9057;DHT22;4563;54.756;9.400;2022-10-16T13:58:40;19.70;68.30
9057;DHT22;4563;54.756;9.400;2022-10-16T14:01:16;19.70;67.90
9057;DHT22;4563;54.756;9.400;2022-10-16T14:03:45;19.70;67.80
9057;DHT22;4563;54.756;9.400;2022-10-16T14:06:14;19.80;67.50
9057;DHT22;4563;54.756;9.400;2022-10-16T14:08:45;19.80;67.30
9057;DHT22;4563;54.756;9.400;2022-10-16T14:11:20;19.80;67.00
9057;DHT22;4563;54.756;9.400;2022-10-16T14:13:49;19.80;67.00
9057;DHT22;4563;54.756;9.400;2022-10-16T14:16:18;19.80;66.80
9057;DHT22;4563;54.756;9.400;2022-10-16T14:18:51;19.80;66.40
9057;DHT22;4563;54.756;9.400;2022-10-16T14:21:21;19.80;66.20
9057;DHT22;4563;54.756;9.400;2022-10-16T14:23:48;19.80;65.80
9057;DHT22;4563;54.756;9.400;2022-10-16T14:26:16;19.80;65.40
9057;DHT22;4563;54.756;9.400;2022-10-16T14:28:44;19.80;65.20
9057;DHT22;4563;54.756;9.400;2022-10-16T14:31:25;19.70;65.10
9057;DHT22;4563;54.756;9.400;2022-10-16T14:33:52;19.70;65.40
9057;DHT22;4563;54.756;9.400;2022-10-16T14:36:20;19.70;65.10
9057;DHT22;4563;54.756;9.400;2022-10-16T14:38:52;19.70;64.80
9057;DHT22;4563;54.756;9.400;2022-10-16T14:41:23;19.70;64.70
9057;DHT22;4563;54.756;9.400;2022-10-16T14:43:52;19.60;64.60
9057;DHT22;4563;54.756;9.400;2022-10-16T14:46:21;19.60;64.30
9057;DHT22;4563;54.756;9.400;2022-10-16T14:48:59;19.60;64.50
9057;DHT22;4563;54.756;9.400;2022-10-16T14:51:26;19.50;64.20
9057;DHT22;4563;54.756;9.400;2022-10-16T14:53:53;19.50;64.00
9057;DHT22;4563;54.756;9.400;2022-10-16T14:56:22;19.50;64.00
9057;DHT22;4563;54.756;9.400;2022-10-16T14:58:50;19.40;63.60
9057;DHT22;4563;54.756;9.400;2022-10-16T15:01:18;19.40;63.60
9057;DHT22;4563;54.756;9.400;2022-10-16T15:03:46;19.40;63.40
9057;DHT22;4563;54.756;9.400;2022-10-16T15:06:14;19.30;63.10
9057;DHT22;4563;54.756;9.400;2022-10-16T15:08:41;19.30;63.20
9057;DHT22;4563;54.756;9.400;2022-10-16T15:11:12;19.30;63.20
9057;DHT22;4563;54.756;9.400;2022-10-16T15:13:39;19.20;63.20
9057;DHT22;4563;54.756;9.400;2022-10-16T15:16:09;19.20;63.10
9057;DHT22;4563;54.756;9.400;2022-10-16T15:18:37;19.10;62.90
9057;DHT22;4563;54.756;9.400;2022-10-16T15:21:05;19.10;63.00
9057;DHT22;4563;54.756;9.400;2022-10-16T15:23:32;19.00;62.80
9057;DHT22;4563;54.756;9.400;2022-10-16T15:25:59;18.90;62.90
9057;DHT22;4563;54.756;9.400;2022-10-16T15:28:26;18.90;62.80
9057;DHT22;4563;54.756;9.400;2022-10-16T15:30:54;18.80;62.80
9057;DHT22;4563;54.756;9.400;2022-10-16T15:33:22;18.80;62.70
9057;DHT22;4563;54.756;9.400;2022-10-16T15:35:52;18.70;62.60
9057;DHT22;4563;54.756;9.400;2022-10-16T15:38:22;18.70;62.80
9057;DHT22;4563;54.756;9.400;2022-10-16T15:40:49;18.60;62.90
9057;DHT22;4563;54.756;9.400;2022-10-16T15:43:16;18.50;62.90
9057;DHT22;4563;54.756;9.400;2022-10-16T15:45:44;18.50;63.00
9057;DHT22;4563;54.756;9.400;2022-10-16T15:48:11;18.40;63.10
9057;DHT22;4563;54.756;9.400;2022-10-16T15:50:39;18.40;63.10
9057;DHT22;4563;54.756;9.400;2022-10-16T15:53:07;18.30;63.20
9057;DHT22;4563;54.756;9.400;2022-10-16T15:55:35;18.30;63.20
9057;DHT22;4563;54.756;9.400;2022-10-16T15:58:03;18.20;63.40
9057;DHT22;4563;54.756;9.400;2022-10-16T16:00:31;18.10;63.30
9057;DHT22;4563;54.756;9.400;2022-10-16T16:02:57;18.10;63.30
9057;DHT22;4563;54.756;9.400;2022-10-16T16:05:24;18.10;63.40
9057;DHT22;4563;54.756;9.400;2022-10-16T16:07:53;18.00;63.30
9057;DHT22;4563;54.756;9.400;2022-10-16T16:10:20;18.00;63.30
9057;DHT22;4563;54.756;9.400;2022-10-16T16:12:49;17.90;63.20
9057;DHT22;4563;54.756;9.400;2022-10-16T16:15:18;17.80;63.20
9057;DHT22;4563;54.756;9.400;2022-10-16T16:17:45;17.70;63.30
9057;DHT22;4563;54.756;9.400;2022-10-16T16:20:12;17.70;63.30
9057;DHT22;4563;54.756;9.400;2022-10-16T16:22:39;17.70;63.50
9057;DHT22;4563;54.756;9.400;2022-10-16T16:25:07;17.60;63.50
9057;DHT22;4563;54.756;9.400;2022-10-16T16:27:33;17.60;63.60
9057;DHT22;4563;54.756;9.400;2022-10-16T16:30:02;17.50;63.60
9057;DHT22;4563;54.756;9.400;2022-10-16T16:32:29;17.50;63.80